createdAt,value
2022-08-16T00:03:26.330Z,100082.13
2022-08-16T00:08:36.228Z,100074.09
2022-08-16T00:13:42.489Z,100076.78
2022-08-16T00:18:45.879Z,100076.78
2022-08-16T00:23:50.395Z,100098.00
2022-08-16T00:28:55.391Z,100099.53
2022-08-16T00:33:58.441Z,100101.28
2022-08-16T00:39:03.610Z,100095.94
2022-08-16T00:44:11.136Z,100109.72
2022-08-16T00:49:18.907Z,100111.09
2022-08-16T00:54:25.717Z,100129.59
2022-08-16T00:59:34.461Z,100128.69
2022-08-16T01:04:38.282Z,100127.19
2022-08-16T01:09:42.794Z,100128.09
2022-08-16T01:14:53.326Z,100134.09
2022-08-16T01:20:00.534Z,100129.75
2022-08-16T01:25:09.038Z,100134.22
2022-08-16T01:30:20.381Z,100134.09
2022-08-16T01:35:29.765Z,100136.72
2022-08-16T01:40:40.686Z,100133.22
2022-08-16T01:45:44.853Z,100134.78
2022-08-16T01:51:09.592Z,100146.88
2022-08-16T01:56:23.273Z,100146.72
2022-08-16T02:01:28.626Z,100149.28
2022-08-16T02:06:34.650Z,100163.78
2022-08-16T02:11:48.633Z,100154.78
2022-08-16T02:16:58.573Z,100151.28
2022-08-16T02:22:09.248Z,100159.84
2022-08-16T02:27:30.993Z,100165.13
2022-08-16T02:32:51.234Z,100162.53
2022-08-16T02:38:01.683Z,100157.94
2022-08-16T02:43:14.004Z,100159.53
2022-08-16T02:48:29.849Z,100159.59
2022-08-16T02:53:36.462Z,100167.34
2022-08-16T02:58:41.589Z,100161.38
2022-08-16T03:04:39.793Z,100158.50
2022-08-16T03:09:13.796Z,100154.22
2022-08-16T03:14:24.699Z,100150.63
2022-08-16T03:19:45.773Z,100155.94
2022-08-16T03:24:52.395Z,100153.31
2022-08-16T03:29:56.803Z,100151.34
2022-08-16T03:35:01.084Z,100154.78
2022-08-16T03:40:05.904Z,100145.13
2022-08-16T03:45:11.426Z,100143.66
2022-08-16T03:50:25.579Z,100150.69
2022-08-16T03:55:40.014Z,100145.44
2022-08-16T04:00:59.307Z,100148.84
2022-08-16T04:06:03.566Z,100153.94
2022-08-16T04:11:06.845Z,100158.50
2022-08-16T04:16:26.690Z,100166.44
2022-08-16T04:21:45.713Z,100153.25
2022-08-16T04:26:50.060Z,100161.72
2022-08-16T04:31:56.601Z,100164.84
2022-08-16T04:37:03.196Z,100178.16
2022-08-16T04:42:12.119Z,100177.63
2022-08-16T04:47:23.860Z,100171.56
2022-08-16T04:52:35.024Z,100188.38
2022-08-16T04:57:41.464Z,100198.75
2022-08-16T05:02:56.201Z,100208.44
2022-08-16T05:08:29.504Z,100201.63
2022-08-16T05:13:41.092Z,100214.25
2022-08-16T05:18:49.326Z,100207.78
2022-08-16T05:23:58.777Z,100215.22
2022-08-16T05:29:06.860Z,100217.84
2022-08-16T05:34:21.300Z,100223.69
2022-08-16T05:39:27.567Z,100237.09
2022-08-16T05:44:30.579Z,100236.59
2022-08-16T05:49:39.653Z,100241.63
2022-08-16T05:54:47.928Z,100244.38
2022-08-16T06:00:09.115Z,100255.78
2022-08-16T06:05:17.351Z,100270.38
2022-08-16T06:10:32.394Z,100264.16
2022-08-16T06:15:41.503Z,100266.31
2022-08-16T06:20:55.779Z,100271.16
2022-08-16T06:26:00.727Z,100270.31
2022-08-16T06:31:12.217Z,100278.03
2022-08-16T06:36:20.963Z,100282.94
2022-08-16T06:41:39.376Z,100282.13
2022-08-16T06:46:50.642Z,100274.09
2022-08-16T06:52:03.290Z,100275.91
2022-08-16T06:57:16.834Z,100287.59
2022-08-16T07:02:32.895Z,100281.44
2022-08-16T07:07:40.902Z,100282.13
2022-08-16T07:13:03.785Z,100285.47
2022-08-16T07:18:11.851Z,100284.50
2022-08-16T07:23:17.421Z,100292.47
2022-08-16T07:28:26.282Z,100278.66
2022-08-16T07:33:52.258Z,100292.22
2022-08-16T07:38:56.517Z,100300.00
2022-08-16T07:44:01.664Z,100297.00
2022-08-16T07:49:11.462Z,100300.75
2022-08-16T07:54:21.339Z,100305.41
2022-08-16T07:59:45.592Z,100308.56
2022-08-16T08:04:49.803Z,100305.84
2022-08-16T08:09:54.961Z,100307.84
2022-08-16T08:14:57.884Z,100314.78
2022-08-16T08:20:01.030Z,100311.72
2022-08-16T08:25:07.660Z,100318.81
2022-08-16T08:30:51.373Z,100342.28
2022-08-16T08:35:37.824Z,100351.66
2022-08-16T08:40:44.864Z,100344.34
2022-08-16T08:45:52.670Z,100347.44
2022-08-16T08:50:57.751Z,100333.56
2022-08-16T08:56:23.529Z,100340.41
2022-08-16T09:01:31.985Z,100335.69
2022-08-16T09:06:43.245Z,100347.25
2022-08-16T09:12:00.279Z,100345.78
2022-08-16T09:17:31.575Z,100354.59
2022-08-16T09:22:36.187Z,100349.00
2022-08-16T09:27:46.623Z,100356.66
2022-08-16T09:33:01.145Z,100364.41
2022-08-16T09:38:05.909Z,100364.69
2022-08-16T09:43:37.733Z,100359.97
2022-08-16T09:48:44.761Z,100367.84
2022-08-16T09:53:55.397Z,100369.41
2022-08-16T09:59:04.893Z,100370.75
2022-08-16T10:04:28.233Z,100365.69
2022-08-16T10:09:54.040Z,100358.88
2022-08-16T10:14:57.275Z,100363.75
2022-08-16T10:20:00.345Z,100369.50
2022-08-16T10:25:03.250Z,100364.00
2022-08-16T10:30:24.954Z,100366.53
2022-08-16T10:35:32.979Z,100359.16
2022-08-16T10:40:36.356Z,100363.88
2022-08-16T10:45:42.158Z,100368.78
2022-08-16T10:51:00.751Z,100357.34
2022-08-16T10:56:44.324Z,100360.59
2022-08-16T11:01:43.094Z,100364.09
2022-08-16T11:07:07.758Z,100376.13
2022-08-16T11:12:13.813Z,100385.81
2022-08-16T11:17:19.131Z,100381.00
2022-08-16T11:22:46.861Z,100383.41
2022-08-16T11:27:46.136Z,100393.56
2022-08-16T11:32:51.882Z,100384.63
2022-08-16T11:38:06.194Z,100402.16
2022-08-16T11:43:23.750Z,100401.56
2022-08-16T11:48:33.409Z,100414.06
2022-08-16T11:53:36.367Z,100415.44
2022-08-16T11:58:40.281Z,100412.16
2022-08-16T12:03:45.941Z,100411.53
2022-08-16T12:08:49.390Z,100414.81
2022-08-16T12:13:53.224Z,100418.41
2022-08-16T12:18:58.078Z,100416.03
2022-08-16T12:24:02.416Z,100430.97
2022-08-16T12:29:06.404Z,100429.94
2022-08-16T12:34:11.199Z,100419.81
2022-08-16T12:39:22.719Z,100417.47
2022-08-16T12:44:26.599Z,100424.56
2022-08-16T12:49:41.983Z,100416.97
2022-08-16T12:54:45.266Z,100416.88
2022-08-16T12:59:57.862Z,100417.69
2022-08-16T13:05:03.101Z,100423.56
2022-08-16T13:10:21.054Z,100423.47
2022-08-16T13:15:55.625Z,100417.66
2022-08-16T13:21:01.610Z,100419.34
2022-08-16T13:26:07.937Z,100423.16
2022-08-16T13:31:11.251Z,100415.09
2022-08-16T13:36:38.870Z,100417.41
2022-08-16T13:41:42.613Z,100412.72
2022-08-16T13:46:47.447Z,100415.34
2022-08-16T13:51:51.767Z,100415.28
2022-08-16T13:56:54.577Z,100411.63
2022-08-16T14:01:59.943Z,100400.75
2022-08-16T14:07:09.021Z,100408.06
2022-08-16T14:12:21.769Z,100410.22
2022-08-16T14:17:26.119Z,100406.00
2022-08-16T14:22:35.883Z,100409.50
2022-08-16T14:27:45.431Z,100411.28
2022-08-16T14:32:51.030Z,100406.75
2022-08-16T14:37:57.228Z,100410.66
2022-08-16T14:43:05.643Z,100404.00
2022-08-16T14:48:10.290Z,100401.44
2022-08-16T14:53:17.236Z,100405.31
2022-08-16T14:58:34.739Z,100402.56
2022-08-16T15:03:44.785Z,100405.09
2022-08-16T15:08:49.328Z,100405.94
2022-08-16T15:13:54.923Z,100407.22
2022-08-16T15:19:00.241Z,100404.69
2022-08-16T15:24:05.507Z,100405.28
2022-08-16T15:29:09.374Z,100400.78
2022-08-16T15:34:19.167Z,100405.47
2022-08-16T15:39:39.358Z,100415.50
2022-08-16T15:44:52.911Z,100416.56
2022-08-16T15:49:57.823Z,100413.09
2022-08-16T15:55:07.426Z,100411.72
2022-08-16T16:00:20.614Z,100411.84
2022-08-16T16:05:23.664Z,100419.81
2022-08-16T16:10:30.150Z,100426.16
2022-08-16T16:15:35.868Z,100425.22
2022-08-16T16:20:43.516Z,100423.50
2022-08-16T16:25:48.263Z,100415.75
2022-08-16T16:30:57.075Z,100411.44
2022-08-16T16:36:03.919Z,100419.19
2022-08-16T16:41:11.260Z,100424.84
2022-08-16T16:46:40.360Z,100431.22
2022-08-16T16:51:41.337Z,100441.00
2022-08-16T16:56:51.376Z,100440.28
2022-08-16T17:01:59.093Z,100445.81
2022-08-16T17:07:10.492Z,100445.97
2022-08-16T17:12:24.962Z,100454.97
2022-08-16T17:17:29.682Z,100452.41
2022-08-16T17:22:33.243Z,100461.25
2022-08-16T17:27:39.791Z,100463.94
2022-08-16T17:32:47.889Z,100469.25
2022-08-16T17:37:52.529Z,100471.91
2022-08-16T17:42:58.692Z,100479.88
2022-08-16T17:48:01.733Z,100482.50
2022-08-16T17:53:06.025Z,100491.47
2022-08-16T17:58:22.556Z,100502.94
2022-08-16T18:04:02.683Z,100507.41
2022-08-16T18:09:00.302Z,100507.47
2022-08-16T18:14:08.829Z,100509.28
2022-08-16T18:19:11.741Z,100516.38
2022-08-16T18:24:16.154Z,100515.50
2022-08-16T18:29:21.211Z,100526.13
2022-08-16T18:34:24.037Z,100527.00
2022-08-16T18:39:27.080Z,100537.59
2022-08-16T18:44:35.027Z,100534.94
2022-08-16T18:49:38.185Z,100532.31
2022-08-16T18:55:02.178Z,100539.34
2022-08-16T19:00:09.839Z,100541.94
2022-08-16T19:05:16.903Z,100559.59
2022-08-16T19:10:20.799Z,100565.72
2022-08-16T19:15:28.591Z,100572.78
2022-08-16T19:20:31.633Z,100575.31
2022-08-16T19:25:47.175Z,100574.31
2022-08-16T19:30:52.731Z,100587.53
2022-08-16T19:36:00.006Z,100582.34
2022-08-16T19:41:03.126Z,100584.94
2022-08-16T19:46:10.775Z,100584.88
2022-08-16T19:51:16.761Z,100595.41
2022-08-16T19:56:21.564Z,100592.69
2022-08-16T20:01:27.793Z,100596.06
2022-08-16T20:06:37.831Z,100614.53
2022-08-16T20:11:44.518Z,100614.53
2022-08-16T20:16:49.080Z,100617.19
2022-08-16T20:21:52.049Z,100622.41
2022-08-16T20:26:55.013Z,100617.00
2022-08-16T20:31:59.616Z,100612.56
2022-08-16T20:37:02.547Z,100627.50
2022-08-16T20:42:05.936Z,100623.94
2022-08-16T20:47:11.021Z,100638.09
2022-08-16T20:52:17.252Z,100650.25
2022-08-16T20:57:20.502Z,100653.78
2022-08-16T21:02:27.472Z,100654.59
2022-08-16T21:07:30.419Z,100658.09
2022-08-16T21:12:34.835Z,100667.66
2022-08-16T21:17:42.678Z,100678.94
2022-08-16T21:22:54.951Z,100678.81
2022-08-16T21:28:39.325Z,100674.25
2022-08-16T21:33:23.069Z,100682.13
2022-08-16T21:38:29.275Z,100675.75
2022-08-16T21:43:33.756Z,100692.38
2022-08-16T21:48:39.740Z,100688.72
2022-08-16T21:53:44.557Z,100695.69
2022-08-16T21:58:52.837Z,100697.38
2022-08-16T22:04:09.632Z,100693.72
2022-08-16T22:09:20.749Z,100689.22
2022-08-16T22:14:23.637Z,100695.34
2022-08-16T22:19:28.014Z,100696.91
2022-08-16T22:24:30.920Z,100694.25
2022-08-16T22:29:33.828Z,100696.69
2022-08-16T22:34:38.098Z,100697.53
2022-08-16T22:39:40.995Z,100694.78
2022-08-16T22:44:46.348Z,100701.84
2022-08-16T22:49:50.846Z,100700.88
2022-08-16T22:54:53.710Z,100706.03
2022-08-16T22:59:56.563Z,100710.28
2022-08-16T23:05:00.821Z,100722.31
2022-08-16T23:10:03.730Z,100711.53
2022-08-16T23:15:07.232Z,100711.63
2022-08-16T23:20:13.260Z,100705.44
2022-08-16T23:25:20.222Z,100712.38
2022-08-16T23:30:24.972Z,100695.38
2022-08-16T23:35:45.282Z,100699.66
2022-08-16T23:40:49.431Z,100703.88
2022-08-16T23:45:56.213Z,100695.91
2022-08-16T23:51:01.631Z,100692.22
2022-08-16T23:56:06.902Z,100688.53
